Time;durP1;ratioP1;P1;durP2;ratioP2;P2;SDS_P1;SDS_P2;PMS_P1;PMS_P2;Temp;Humidity;BMP_temperature;BMP_pressure;BME280_temperature;BME280_humidity;BME280_pressure;Samples;Min_cycle;Max_cycle;Signal;HPM_P1;HPM_P2
2022/11/06 00:02:09;;;;;;;13.27;5.73;;;;;;;9.56;73.09;99890.84;5031359;28;20270;-89
2022/11/06 00:04:34;;;;;;;15.98;7.65;;;;;;;9.56;72.79;99901.72;5013503;28;20625;-87
2022/11/06 00:06:59;;;;;;;12.07;5.55;;;;;;;9.61;72.86;99892.81;5012891;28;20394;-89
2022/11/06 00:09:24;;;;;;;10.97;4.27;;;;;;;9.52;73.46;99887.81;5012661;28;20030;-88
2022/11/06 00:11:51;;;;;;;9.13;4.90;;;;;;;9.48;73.36;99875.00;5012866;28;20831;-87
2022/11/06 00:14:17;;;;;;;14.23;5.20;;;;;;;9.42;73.22;99887.69;5014801;28;20305;-90
2022/11/06 00:16:44;;;;;;;10.32;5.90;;;;;;;9.35;73.92;99877.03;5032832;28;20045;-88
2022/11/06 00:19:09;;;;;;;10.63;4.55;;;;;;;9.35;74.10;99879.75;5020128;28;20049;-89
2022/11/06 00:21:35;;;;;;;13.25;6.03;;;;;;;9.37;73.98;99882.19;5012879;28;20080;-89
2022/11/06 00:24:03;;;;;;;13.73;4.93;;;;;;;9.32;73.83;99891.13;5013236;28;20056;-89
2022/11/06 00:26:30;;;;;;;9.65;4.78;;;;;;;9.42;73.53;99879.53;5013140;28;20052;-89
2022/11/06 00:28:55;;;;;;;9.27;5.35;;;;;;;9.37;74.13;99877.59;5015665;28;20463;-90
2022/11/06 00:31:24;;;;;;;17.95;5.05;;;;;;;9.46;73.38;99880.66;5016916;28;20029;-90
2022/11/06 00:33:50;;;;;;;12.45;5.53;;;;;;;9.51;73.22;99880.75;5016410;28;20080;-88
2022/11/06 00:36:18;;;;;;;10.23;4.78;;;;;;;9.39;73.33;99874.59;5017126;28;20467;-90
2022/11/06 00:38:43;;;;;;;9.30;5.25;;;;;;;9.44;73.47;99886.38;5017090;28;20109;-88
2022/11/06 00:41:14;;;;;;;12.70;4.82;;;;;;;9.39;73.32;99888.22;5017161;28;20467;-89
2022/11/06 00:43:39;;;;;;;10.65;5.15;;;;;;;9.35;73.62;99890.63;5017003;28;20030;-88
2022/11/06 00:46:10;;;;;;;8.32;4.25;;;;;;;9.26;73.65;99886.69;5017078;28;20033;-88
2022/11/06 00:48:37;;;;;;;7.07;3.90;;;;;;;9.38;73.52;99886.56;5017016;28;20060;-89
2022/11/06 00:51:14;;;;;;;9.77;5.00;;;;;;;9.46;73.17;99892.38;5017532;28;20042;-88
2022/11/06 00:53:40;;;;;;;9.45;3.70;;;;;;;9.48;73.03;99888.59;5016720;28;20037;-88
2022/11/06 00:56:17;;;;;;;13.77;5.45;;;;;;;9.27;73.49;99886.44;5016853;28;20029;-88
2022/11/06 00:58:44;;;;;;;7.50;3.40;;;;;;;9.34;72.93;99894.41;5016885;28;20105;-88
2022/11/06 01:01:11;;;;;;;9.25;3.83;;;;;;;9.30;73.30;99894.09;5017367;28;20033;-89
2022/11/06 01:03:38;;;;;;;6.88;3.25;;;;;;;9.13;74.05;99882.47;5016719;28;20048;-87
2022/11/06 01:06:13;;;;;;;10.05;3.85;;;;;;;9.12;73.87;99887.06;5016877;28;20066;-87
2022/11/06 01:08:39;;;;;;;14.15;4.20;;;;;;;8.98;74.41;99875.72;5016540;28;20099;-89
2022/11/06 01:11:12;;;;;;;8.57;4.10;;;;;;;8.96;74.46;99888.75;5016959;28;20022;-86
2022/11/06 01:13:38;;;;;;;8.68;4.53;;;;;;;9.08;74.16;99892.19;5016070;28;20070;-91
2022/11/06 01:16:06;;;;;;;5.18;3.08;;;;;;;8.95;74.84;99881.69;5016729;28;20037;-91
2022/11/06 01:18:31;;;;;;;11.65;3.28;;;;;;;8.92;74.35;99879.47;5016582;28;20045;-92
2022/11/06 01:20:57;;;;;;;16.73;3.50;;;;;;;9.09;74.11;99882.16;5016751;28;20022;-92
2022/11/06 01:23:22;;;;;;;7.77;3.70;;;;;;;8.96;74.83;99878.72;5015056;28;20156;-91
2022/11/06 01:26:03;;;;;;;7.18;4.07;;;;;;;8.90;75.17;99868.84;4999085;28;20294;-91
2022/11/06 01:28:28;;;;;;;7.18;3.35;;;;;;;9.04;74.43;99868.47;5016206;28;20132;-92
2022/11/06 01:30:54;;;;;;;6.53;3.22;;;;;;;9.11;74.27;99864.47;5016002;28;20123;-92
2022/11/06 01:33:20;;;;;;;6.55;3.15;;;;;;;9.13;74.21;99860.69;5018062;28;20561;-91
2022/11/06 01:35:49;;;;;;;9.80;4.47;;;;;;;8.83;75.19;99844.53;5015929;28;20030;-92
2022/11/06 01:38:15;;;;;;;9.50;3.40;;;;;;;8.97;74.41;99847.72;5015620;28;20074;-91
2022/11/06 01:40:44;;;;;;;8.23;3.72;;;;;;;9.00;74.53;99840.94;5015981;28;20080;-91
2022/11/06 01:43:21;;;;;;;11.45;4.65;;;;;;;8.72;75.44;99831.88;5025472;28;20053;-92
2022/11/06 01:45:54;;;;;;;21.25;4.00;;;;;;;8.87;74.88;99831.25;5035992;28;20107;-91
2022/11/06 01:48:24;;;;;;;6.50;3.35;;;;;;;8.92;74.65;99842.22;5035610;28;20047;-91
2022/11/06 01:50:54;;;;;;;6.68;2.47;;;;;;;8.95;74.64;99828.09;5051872;28;20046;-90
2022/11/06 01:53:20;;;;;;;6.18;3.05;;;;;;;9.11;73.90;99820.97;5017189;28;20049;-91
2022/11/06 01:55:50;;;;;;;7.10;3.20;;;;;;;8.73;75.13;99815.31;5029255;28;20048;-89
2022/11/06 01:58:18;;;;;;;6.88;3.25;;;;;;;8.90;75.04;99813.63;5012625;28;20128;-90
2022/11/06 02:00:45;;;;;;;14.48;3.97;;;;;;;8.68;74.88;99807.13;5013427;28;20038;-89
2022/11/06 02:03:11;;;;;;;7.10;3.25;;;;;;;8.92;75.16;99806.03;5012990;28;20041;-90
2022/11/06 02:05:37;;;;;;;6.22;2.90;;;;;;;8.94;74.42;99810.16;4995616;28;20390;-88
2022/11/06 02:08:04;;;;;;;8.32;3.88;;;;;;;8.85;74.54;99815.19;5012599;28;20039;-89
2022/11/06 02:10:29;;;;;;;9.82;3.22;;;;;;;8.87;74.47;99806.78;5012465;28;20026;-89
2022/11/06 02:13:15;;;;;;;6.90;3.60;;;;;;;8.69;74.95;99792.44;5020250;28;20051;-88
2022/11/06 02:16:03;;;;;;;6.03;2.60;;;;;;;8.91;74.40;99794.34;5034883;28;20588;-89
2022/11/06 02:18:41;;;;;;;11.40;3.17;;;;;;;8.69;74.84;99797.88;5034367;28;20026;-89
2022/11/06 02:21:16;;;;;;;7.80;2.67;;;;;;;8.68;75.18;99796.25;5033437;28;20025;-90
2022/11/06 02:24:10;;;;;;;7.32;3.20;;;;;;;8.78;74.61;99805.59;5034161;28;20044;-90
2022/11/06 02:26:54;;;;;;;6.32;3.60;;;;;;;8.78;74.79;99800.16;5034357;28;20486;-89
2022/11/06 02:29:24;;;;;;;4.55;2.10;;;;;;;8.71;74.37;99803.88;5034378;28;20082;-91
2022/11/06 02:31:54;;;;;;;5.38;2.40;;;;;;;8.70;74.91;99793.25;5034383;28;20375;-89
2022/11/06 02:34:25;;;;;;;6.40;2.55;;;;;;;8.65;75.01;99791.28;5015197;28;20052;-91
2022/11/06 02:36:58;;;;;;;6.18;3.03;;;;;;;8.68;74.87;99792.69;5014557;28;20038;-90
2022/11/06 02:39:26;;;;;;;8.80;2.23;;;;;;;8.81;74.60;99799.63;5014396;28;20037;-90
2022/11/06 02:41:53;;;;;;;12.00;3.25;;;;;;;8.74;74.58;99800.69;5014804;28;20030;-91
2022/11/06 02:44:23;;;;;;;6.35;2.05;;;;;;;8.84;74.37;99791.00;5014514;28;20159;-90
2022/11/06 02:47:01;;;;;;;6.35;2.80;;;;;;;8.84;74.40;99793.72;5014708;28;20026;-91
2022/11/06 02:49:44;;;;;;;15.15;4.63;;;;;;;8.97;73.82;99790.59;5014667;28;20116;-89
2022/11/06 02:52:31;;;;;;;8.98;3.13;;;;;;;8.79;74.33;99793.66;5013553;28;20030;-91
2022/11/06 02:55:13;;;;;;;13.77;3.80;;;;;;;8.63;75.24;99798.88;5014658;28;20477;-90
2022/11/06 02:57:42;;;;;;;4.05;2.20;;;;;;;8.81;74.33;99805.06;5014537;28;20033;-89
2022/11/06 03:00:14;;;;;;;11.75;3.42;;;;;;;8.90;74.18;99797.31;5014411;28;20030;-90
2022/11/06 03:02:48;;;;;;;6.82;2.10;;;;;;;8.79;74.37;99785.50;5014264;28;20045;-91
2022/11/06 03:05:20;;;;;;;25.13;4.68;;;;;;;8.77;74.66;99777.56;4996736;28;20025;-91
2022/11/06 03:08:05;;;;;;;5.80;2.60;;;;;;;8.69;74.70;99781.56;5014241;28;20029;-91
2022/11/06 03:10:44;;;;;;;7.60;3.22;;;;;;;8.72;74.53;99782.97;5014467;28;20069;-89
2022/11/06 03:13:20;;;;;;;9.50;2.88;;;;;;;8.64;74.80;99781.50;5023468;28;20124;-91
2022/11/06 03:16:03;;;;;;;6.28;2.15;;;;;;;8.63;74.65;99769.81;5034117;28;20756;-90
2022/11/06 03:18:35;;;;;;;6.47;2.05;;;;;;;8.63;75.12;99760.81;5034065;28;20108;-91
2022/11/06 03:21:06;;;;;;;6.95;2.15;;;;;;;8.62;75.23;99760.00;5034161;28;20034;-89
2022/11/06 03:23:40;;;;;;;7.50;3.40;;;;;;;8.62;75.05;99756.47;5020728;28;20081;-90
2022/11/06 03:26:18;;;;;;;;;;;;;;;8.57;75.32;99756.38;5014738;28;20034;-90
2022/11/06 03:28:55;;;;;;;7.00;2.40;;;;;;;8.56;75.01;99743.88;5014449;28;20370;-91
2022/11/06 03:31:29;;;;;;;8.60;3.70;;;;;;;8.67;74.97;99747.53;5013787;28;20061;-89
2022/11/06 03:34:00;;;;;;;7.22;3.03;;;;;;;8.77;74.44;99755.03;5013528;28;20033;-89
2022/11/06 03:36:32;;;;;;;5.82;2.25;;;;;;;8.81;74.71;99751.53;5013932;28;20044;-90
2022/11/06 03:39:12;;;;;;;4.93;2.50;;;;;;;8.63;74.94;99734.47;5014163;28;20030;-90
2022/11/06 03:41:44;;;;;;;9.40;2.28;;;;;;;8.65;75.09;99736.94;5014244;28;20033;-91
2022/11/06 03:44:13;;;;;;;6.72;2.47;;;;;;;8.66;75.16;99743.19;5014211;28;20483;-90
2022/11/06 03:46:44;;;;;;;10.05;1.92;;;;;;;8.73;74.92;99744.66;5014096;28;20064;-91
2022/11/06 03:49:15;;;;;;;7.78;2.50;;;;;;;8.70;74.92;99745.16;5026096;28;20120;-92
2022/11/06 03:51:57;;;;;;;5.13;2.40;;;;;;;8.73;74.86;99743.81;5033471;28;20559;-87
2022/11/06 03:54:28;;;;;;;6.03;2.40;;;;;;;8.67;74.75;99745.66;5014005;28;20159;-91
2022/11/06 03:57:06;;;;;;;4.28;1.58;;;;;;;8.61;75.16;99752.94;5013453;28;20034;-91
2022/11/06 03:59:38;;;;;;;9.55;2.97;;;;;;;8.77;74.89;99755.03;5012080;28;20127;-90
2022/11/06 04:02:03;;;;;;;7.43;2.60;;;;;;;8.77;75.28;99763.19;5013694;28;20030;-91
2022/11/06 04:04:49;;;;;;;5.68;2.35;;;;;;;8.67;75.15;99781.00;5013832;28;20037;-92
2022/11/06 04:07:19;;;;;;;6.95;2.22;;;;;;;8.72;75.01;99782.97;5013785;28;20117;-91
2022/11/06 04:15:23;;;;;;;6.90;2.97;;;;;;;8.75;74.87;99782.44;5013607;28;20448;-88
2022/11/06 04:17:48;;;;;;;4.22;2.20;;;;;;;8.53;75.86;99778.63;5013287;28;20124;-92
2022/11/06 04:23:33;;;;;;;8.80;3.40;;;;;;;8.62;75.44;99767.34;5017306;28;20119;-92
2022/11/06 04:29:06;;;;;;;4.85;2.00;;;;;;;8.72;75.13;99759.31;5033278;28;20091;-92
2022/11/06 04:32:09;;;;;;;9.70;2.58;;;;;;;8.64;75.38;99757.84;5033318;28;20029;-91
2022/11/06 04:34:44;;;;;;;8.52;2.10;;;;;;;8.56;75.61;99765.59;4993920;28;20206;-91
2022/11/06 04:37:18;;;;;;;6.57;1.98;;;;;;;8.54;75.53;99749.56;4993391;28;20655;-92
2022/11/06 04:39:55;;;;;;;11.70;2.80;;;;;;;8.68;75.66;99757.34;4993696;28;20038;-91
2022/11/06 04:42:38;;;;;;;7.00;2.42;;;;;;;8.64;75.18;99754.31;4996834;28;20022;-91
2022/11/06 04:45:10;;;;;;;4.93;1.52;;;;;;;8.70;75.49;99747.88;5028372;28;20302;-92
2022/11/06 04:47:37;;;;;;;9.40;1.85;;;;;;;8.58;75.39;99748.00;5012921;28;20049;-90
2022/11/06 04:50:06;;;;;;;11.95;3.00;;;;;;;8.31;76.95;99731.56;5012531;28;20120;-90
2022/11/06 04:52:34;;;;;;;6.50;1.88;;;;;;;8.41;76.30;99729.00;5012193;28;20056;-88
2022/11/06 04:54:59;;;;;;;7.72;1.67;;;;;;;8.20;77.69;99736.84;5012674;28;20042;-91
2022/11/06 04:57:25;;;;;;;4.85;2.50;;;;;;;8.45;76.52;99730.13;5012516;28;20036;-93
2022/11/06 04:59:51;;;;;;;3.97;2.15;;;;;;;8.42;76.83;99733.34;5013101;28;20167;-94
2022/11/06 05:02:17;;;;;;;5.30;2.15;;;;;;;8.54;76.37;99735.97;5015179;28;20112;-93
2022/11/06 05:04:42;;;;;;;4.53;2.08;;;;;;;8.41;76.65;99740.69;5032596;28;20466;-93
2022/11/06 05:07:08;;;;;;;5.35;2.30;;;;;;;8.34;77.13;99725.66;5032643;28;20033;-88
2022/11/06 05:09:33;;;;;;;5.60;1.90;;;;;;;8.47;76.70;99728.00;5031906;28;20033;-92
2022/11/06 05:11:59;;;;;;;6.17;2.17;;;;;;;8.48;76.55;99723.38;5032522;28;20029;-91
2022/11/06 05:14:24;;;;;;;5.53;2.20;;;;;;;8.52;76.42;99711.75;5034866;28;20708;-93
2022/11/06 05:16:49;;;;;;;9.87;1.97;;;;;;;8.31;77.27;99704.41;5036615;28;20077;-93
2022/11/06 05:19:14;;;;;;;8.18;2.47;;;;;;;8.38;76.92;99699.63;5036076;28;20274;-93
2022/11/06 05:24:23;;;;;;;6.78;1.60;;;;;;;8.34;77.56;99702.00;5016538;28;20113;-91
2022/11/06 05:26:49;;;;;;;5.97;1.33;;;;;;;8.41;77.54;99694.50;5016060;28;20077;-93
2022/11/06 05:29:14;;;;;;;5.00;2.13;;;;;;;8.50;76.75;99692.16;5016574;28;20298;-93
2022/11/06 05:31:39;;;;;;;5.20;2.00;;;;;;;8.53;76.76;99688.94;4998955;28;20042;-91
2022/11/06 05:34:06;;;;;;;10.98;2.88;;;;;;;8.69;76.41;99681.00;5031977;28;20043;-91
2022/11/06 05:36:31;;;;;;;6.65;2.22;;;;;;;8.49;76.59;99670.66;5032931;28;20109;-89
2022/11/06 05:38:56;;;;;;;7.57;1.95;;;;;;;8.47;77.00;99678.25;5032295;28;20128;-89
2022/11/06 05:41:21;;;;;;;4.13;1.50;;;;;;;8.48;76.92;99686.16;5035007;28;20077;-91
2022/11/06 05:43:47;;;;;;;9.23;1.70;;;;;;;8.38;77.35;99672.47;5021439;28;20270;-90
2022/11/06 05:46:12;;;;;;;9.27;2.97;;;;;;;8.24;77.47;99664.66;5016236;28;20325;-89
2022/11/06 05:48:38;;;;;;;5.03;1.80;;;;;;;8.46;77.36;99669.28;5015798;28;20030;-93
2022/11/06 05:51:05;;;;;;;4.97;1.63;;;;;;;8.58;76.46;99661.03;5016494;28;20475;-92
2022/11/06 05:53:34;;;;;;;3.17;1.33;;;;;;;8.33;77.53;99662.34;5016101;28;20275;-92
2022/11/06 05:55:59;;;;;;;5.30;1.65;;;;;;;8.28;77.72;99651.38;5016213;28;20040;-92
2022/11/06 05:58:26;;;;;;;6.50;1.90;;;;;;;8.32;77.85;99651.72;5016128;28;20034;-92
2022/11/06 06:00:53;;;;;;;5.53;1.75;;;;;;;8.42;77.09;99662.69;5016648;28;20481;-91
2022/11/06 06:03:20;;;;;;;11.20;3.30;;;;;;;8.36;77.39;99659.09;5015947;28;20437;-92
2022/11/06 06:05:45;;;;;;;5.97;1.65;;;;;;;8.25;77.99;99652.75;5016305;28;20596;-95
2022/11/06 06:08:10;;;;;;;6.90;2.40;;;;;;;8.29;77.82;99645.72;5015538;28;20030;-95
2022/11/06 06:10:40;;;;;;;10.03;1.60;;;;;;;8.28;77.56;99646.78;5016272;28;20042;-94
2022/11/06 06:13:05;;;;;;;5.70;1.80;;;;;;;8.21;78.02;99635.31;5016330;28;20306;-93
2022/11/06 06:15:31;;;;;;;4.63;2.07;;;;;;;8.17;78.18;99628.72;5015384;28;20033;-92
2022/11/06 06:17:56;;;;;;;5.35;1.55;;;;;;;8.14;78.33;99618.34;5016055;28;20266;-93
2022/11/06 06:20:21;;;;;;;4.45;1.60;;;;;;;8.04;78.57;99625.31;5014797;28;20634;-92
2022/11/06 06:22:57;;;;;;;5.10;1.97;;;;;;;8.21;77.62;99629.88;5014825;28;20627;-92
2022/11/06 06:25:23;;;;;;;4.25;2.17;;;;;;;8.36;77.45;99631.13;4997158;28;20267;-92
2022/11/06 06:27:49;;;;;;;8.90;1.90;;;;;;;8.36;77.48;99631.13;5015347;28;20707;-93
2022/11/06 06:30:14;;;;;;;8.30;1.65;;;;;;;8.34;77.51;99628.66;5014996;28;20029;-90
2022/11/06 06:32:40;;;;;;;5.55;2.13;;;;;;;8.17;78.22;99645.03;5020403;28;20056;-89
2022/11/06 06:35:05;;;;;;;8.53;2.23;;;;;;;8.01;78.55;99638.56;5033819;28;20044;-90
2022/11/06 06:37:30;;;;;;;5.13;1.83;;;;;;;8.09;78.73;99631.88;5034275;28;20275;-88
2022/11/06 06:39:56;;;;;;;7.30;1.93;;;;;;;8.16;78.36;99637.94;5034118;28;20124;-90
2022/11/06 06:42:21;;;;;;;7.20;1.80;;;;;;;8.02;78.77;99635.59;5034208;28;20254;-90
2022/11/06 06:44:46;;;;;;;5.07;1.87;;;;;;;8.26;77.87;99632.63;5034210;28;20361;-89
2022/11/06 06:47:15;;;;;;;8.40;1.52;;;;;;;8.12;78.61;99628.66;5034655;28;20255;-89
2022/11/06 06:49:41;;;;;;;5.60;1.98;;;;;;;8.23;77.94;99632.31;5034924;28;20700;-90
2022/11/06 06:52:06;;;;;;;7.60;2.13;;;;;;;8.18;78.14;99633.91;5034476;28;20030;-89
2022/11/06 06:54:32;;;;;;;15.20;2.78;;;;;;;8.09;78.54;99632.72;5034547;28;20485;-89
2022/11/06 06:56:59;;;;;;;6.60;2.87;;;;;;;8.00;78.37;99623.34;5034119;28;20025;-91
2022/11/06 06:59:26;;;;;;;5.88;1.55;;;;;;;8.27;77.57;99626.16;5035344;28;20382;-93
2022/11/06 07:01:51;;;;;;;5.03;1.40;;;;;;;8.26;77.96;99632.63;5015196;28;20034;-88
2022/11/06 07:04:16;;;;;;;10.93;2.80;;;;;;;8.15;78.21;99641.75;5013558;28;20034;-93
2022/11/06 07:06:41;;;;;;;13.03;2.87;;;;;;;8.29;77.92;99645.72;5013924;28;20259;-90
2022/11/06 07:09:07;;;;;;;5.17;1.50;;;;;;;8.38;77.44;99646.09;5014639;28;20306;-92
2022/11/06 07:11:32;;;;;;;3.33;1.50;;;;;;;8.28;77.79;99630.50;5014215;28;20755;-90
2022/11/06 07:13:57;;;;;;;5.47;2.15;;;;;;;8.28;78.12;99635.09;5029752;28;20314;-91
2022/11/06 07:16:24;;;;;;;8.23;1.73;;;;;;;8.24;78.04;99636.66;5034135;28;20053;-91
2022/11/06 07:18:49;;;;;;;5.68;1.75;;;;;;;8.31;77.95;99648.19;5033504;28;20296;-92
2022/11/06 07:21:14;;;;;;;7.13;1.90;;;;;;;8.26;78.28;99642.66;5013757;28;20034;-91
2022/11/06 07:23:40;;;;;;;5.07;1.98;;;;;;;8.26;77.98;99654.38;5013773;28;20259;-92
2022/11/06 07:26:05;;;;;;;6.22;1.80;;;;;;;8.18;78.08;99652.09;5013779;28;20386;-90
2022/11/06 07:28:31;;;;;;;2.78;1.23;;;;;;;8.39;77.58;99642.31;5014322;28;20539;-91
2022/11/06 07:31:01;;;;;;;4.65;2.33;;;;;;;8.52;76.95;99646.53;5014047;28;20065;-91
2022/11/06 07:33:27;;;;;;;4.32;1.50;;;;;;;8.51;77.37;99650.34;5014017;28;20065;-93
2022/11/06 07:35:52;;;;;;;8.23;3.10;;;;;;;8.66;76.97;99651.63;5014330;28;20069;-91
2022/11/06 07:38:18;;;;;;;6.17;2.13;;;;;;;8.68;76.72;99652.19;5013667;28;20053;-92
2022/11/06 07:40:43;;;;;;;5.00;1.48;;;;;;;8.72;77.03;99661.47;5013615;28;20824;-91
2022/11/06 07:43:10;;;;;;;8.50;2.23;;;;;;;8.51;77.22;99661.19;4991697;28;20125;-90
2022/11/06 07:45:37;;;;;;;4.00;1.60;;;;;;;8.87;76.15;99652.66;4996890;28;20270;-96
2022/11/06 07:48:03;;;;;;;4.13;1.60;;;;;;;8.62;76.50;99666.78;5013414;28;20137;-95
2022/11/06 07:50:29;;;;;;;5.47;1.50;;;;;;;8.76;76.92;99667.22;5014115;28;20030;-96
2022/11/06 07:52:54;;;;;;;7.82;2.08;;;;;;;8.85;76.85;99659.41;5004539;28;20033;-92
2022/11/06 07:55:20;;;;;;;6.13;2.05;;;;;;;8.74;76.92;99664.75;5015051;28;20100;-87
2022/11/06 07:57:46;;;;;;;3.90;1.55;;;;;;;8.71;76.72;99661.69;5003064;28;20046;-93
2022/11/06 08:00:12;;;;;;;3.35;1.33;;;;;;;8.89;76.61;99654.31;4997686;28;20064;-93
2022/11/06 08:02:37;;;;;;;7.75;2.30;;;;;;;8.73;77.07;99645.97;5000183;28;20049;-91
2022/11/06 08:05:03;;;;;;;4.25;1.73;;;;;;;8.81;77.32;99645.50;5014455;28;20026;-83
2022/11/06 08:07:28;;;;;;;5.32;1.90;;;;;;;8.99;76.70;99638.06;5013586;28;20435;-80
2022/11/06 08:09:53;;;;;;;6.87;1.80;;;;;;;9.11;76.64;99648.81;5013372;28;20037;-81
2022/11/06 08:12:19;;;;;;;8.77;1.73;;;;;;;9.08;76.81;99641.97;5013200;28;20288;-81
2022/11/06 08:14:44;;;;;;;3.67;1.40;;;;;;;9.11;76.53;99640.66;5013193;28;20263;-84
2022/11/06 08:17:09;;;;;;;7.45;1.85;;;;;;;9.11;76.31;99646.88;5013587;28;20041;-82
2022/11/06 08:19:35;;;;;;;5.57;1.90;;;;;;;9.11;76.29;99641.44;5029654;28;20080;-87
2022/11/06 08:22:00;;;;;;;5.50;1.83;;;;;;;9.02;76.41;99634.03;5032230;28;20041;-82
2022/11/06 08:24:25;;;;;;;5.03;1.40;;;;;;;9.25;75.79;99630.16;5012671;28;20018;-82
2022/11/06 08:26:50;;;;;;;7.13;2.33;;;;;;;9.24;76.13;99639.38;5017519;28;20112;-84
2022/11/06 08:29:16;;;;;;;6.03;1.50;;;;;;;9.27;76.08;99633.44;5029271;28;20258;-87
2022/11/06 08:31:41;;;;;;;6.13;1.55;;;;;;;9.29;75.68;99625.84;5013055;28;20438;-85
2022/11/06 08:34:07;;;;;;;7.97;2.88;;;;;;;9.31;76.04;99631.03;5029940;28;20056;-85
2022/11/06 08:36:44;;;;;;;4.55;1.83;;;;;;;9.58;75.52;99622.78;5032556;28;20039;-83
2022/11/06 08:39:10;;;;;;;3.85;1.40;;;;;;;9.63;75.76;99624.72;5032545;28;20037;-84
2022/11/06 08:41:35;;;;;;;9.10;2.78;;;;;;;9.52;75.80;99620.31;5032361;28;20112;-84
2022/11/06 08:44:00;;;;;;;5.23;1.97;;;;;;;9.60;75.14;99622.50;5013047;28;20081;-86
2022/11/06 08:46:26;;;;;;;6.10;1.57;;;;;;;9.77;74.71;99618.81;5012940;28;20255;-86
2022/11/06 08:48:51;;;;;;;10.57;1.77;;;;;;;9.78;75.19;99618.53;5014119;28;20362;-85
2022/11/06 08:51:16;;;;;;;10.68;1.65;;;;;;;9.65;75.21;99608.94;5017064;28;20744;-82
2022/11/06 08:53:41;;;;;;;5.85;1.75;;;;;;;9.72;74.74;99607.91;5016218;28;20044;-81
2022/11/06 08:56:07;;;;;;;10.73;4.03;;;;;;;9.84;74.77;99619.41;5016758;28;20045;-84
2022/11/06 08:58:34;;;;;;;4.00;1.50;;;;;;;10.00;74.41;99614.88;5016449;28;20271;-82
2022/11/06 09:00:59;;;;;;;5.45;2.22;;;;;;;9.99;74.48;99598.78;5035061;28;20115;-84
2022/11/06 09:03:24;;;;;;;8.10;2.42;;;;;;;10.08;74.18;99602.66;5024089;28;20076;-87
2022/11/06 09:05:50;;;;;;;4.55;1.38;;;;;;;10.31;73.17;99603.28;5016427;28;20026;-87
2022/11/06 09:08:15;;;;;;;5.50;1.53;;;;;;;10.26;73.63;99600.53;5016057;28;20617;-86
2022/11/06 09:10:42;;;;;;;8.80;2.05;;;;;;;10.48;72.51;99583.16;5017302;28;20251;-84
2022/11/06 09:13:08;;;;;;;4.53;1.27;;;;;;;10.37;73.38;99577.66;5014370;28;20050;-85
2022/11/06 09:15:33;;;;;;;4.90;1.67;;;;;;;10.51;72.66;99577.22;5014233;28;20471;-88
2022/11/06 09:17:58;;;;;;;5.60;1.35;;;;;;;10.67;72.16;99579.97;5015879;28;20501;-84
2022/11/06 09:20:25;;;;;;;7.27;1.80;;;;;;;10.81;72.54;99574.78;5015842;28;20030;-90
2022/11/06 09:22:51;;;;;;;3.30;1.33;;;;;;;10.83;71.90;99584.34;5015408;28;20323;-88
2022/11/06 09:25:17;;;;;;;6.05;2.47;;;;;;;10.76;71.40;99589.22;5016088;28;20083;-86
2022/11/06 09:27:46;;;;;;;9.35;2.40;;;;;;;10.81;71.81;99570.16;5015645;28;20067;-85
2022/11/06 09:30:13;;;;;;;5.28;1.35;;;;;;;10.90;71.50;99572.38;5015463;28;20100;-87
2022/11/06 09:32:45;;;;;;;5.57;1.33;;;;;;;10.86;71.04;99570.16;5020729;28;20080;-89
2022/11/06 09:35:10;;;;;;;5.63;2.95;;;;;;;10.48;72.17;99569.53;5015789;28;20030;-86
2022/11/06 09:37:36;;;;;;;5.57;1.63;;;;;;;10.84;71.33;99557.91;5015524;28;20038;-86
2022/11/06 09:40:01;;;;;;;6.93;1.90;;;;;;;11.03;70.49;99566.34;5015995;28;20451;-82
2022/11/06 09:42:47;;;;;;;4.65;1.98;;;;;;;11.01;70.58;99568.53;5014881;28;20283;-83
2022/11/06 09:45:21;;;;;;;7.75;1.73;;;;;;;11.02;71.15;99555.72;5015086;28;20022;-84
2022/11/06 09:47:51;;;;;;;9.05;1.35;;;;;;;11.05;71.14;99552.44;5015931;28;20068;-88
2022/11/06 09:50:21;;;;;;;6.22;2.17;;;;;;;10.98;70.75;99548.06;5015947;28;20517;-90
2022/11/06 09:52:53;;;;;;;4.22;1.90;;;;;;;11.01;70.73;99546.72;5015739;28;20049;-85
2022/11/06 09:55:32;;;;;;;8.10;2.17;;;;;;;11.09;71.25;99538.00;5016219;28;20029;-92
2022/11/06 09:58:24;;;;;;;9.05;2.20;;;;;;;11.31;70.23;99536.03;5016054;28;20034;-87
2022/11/06 10:00:51;;;;;;;11.80;3.33;;;;;;;11.32;70.68;99537.69;5015156;28;20041;-88
2022/11/06 10:03:25;;;;;;;6.90;2.17;;;;;;;11.22;69.86;99535.78;5026347;28;20037;-88
2022/11/06 10:05:52;;;;;;;5.47;1.60;;;;;;;11.26;70.41;99539.63;5035974;28;20601;-88
2022/11/06 10:08:29;;;;;;;7.25;1.85;;;;;;;11.14;70.04;99531.72;5032916;28;20042;-88
2022/11/06 10:11:05;;;;;;;4.95;1.90;;;;;;;11.18;70.52;99535.53;5034516;28;20030;-92
2022/11/06 10:13:42;;;;;;;11.50;1.73;;;;;;;11.09;70.29;99521.63;5035040;28;20056;-86
2022/11/06 10:16:40;;;;;;;10.40;1.58;;;;;;;11.17;70.36;99516.69;5027485;28;20049;-80
2022/11/06 10:19:31;;;;;;;4.95;1.95;;;;;;;11.18;69.82;99507.41;5012119;28;20040;-88
2022/11/06 10:22:17;;;;;;;5.80;1.83;;;;;;;11.03;70.48;99511.78;5015065;28;20057;-85
2022/11/06 10:25:03;;;;;;;4.85;1.98;;;;;;;11.22;70.03;99524.88;5014162;28;20130;-81
2022/11/06 10:27:47;;;;;;;9.27;2.25;;;;;;;10.96;70.20;99519.44;5013808;28;20589;-88
2022/11/06 10:30:16;;;;;;;3.65;1.20;;;;;;;11.26;69.67;99504.13;5007275;28;20606;-89
2022/11/06 10:32:53;;;;;;;7.00;1.75;;;;;;;11.45;68.93;99500.81;5000118;28;20414;-88
2022/11/06 10:35:45;;;;;;;9.30;1.40;;;;;;;11.47;68.84;99506.78;5033503;28;20033;-90
2022/11/06 10:38:19;;;;;;;2.72;1.48;;;;;;;11.53;68.92;99494.78;5021599;28;20580;-87
2022/11/06 10:40:48;;;;;;;3.83;1.77;;;;;;;11.51;69.01;99483.31;5014129;28;20017;-88
2022/11/06 10:43:29;;;;;;;9.95;1.80;;;;;;;11.79;68.04;99481.06;5032616;28;20033;-89
2022/11/06 10:46:28;;;;;;;9.65;1.75;;;;;;;11.81;67.81;99483.50;5034594;28;20064;-86
2022/11/06 10:48:59;;;;;;;3.90;1.27;;;;;;;11.85;67.79;99484.56;5030420;28;20038;-89
2022/11/06 10:51:50;;;;;;;2.58;1.15;;;;;;;11.71;68.30;99470.69;5033520;28;20032;-88
2022/11/06 10:54:34;;;;;;;4.90;1.70;;;;;;;11.68;68.06;99477.53;5014931;28;20105;-88
2022/11/06 10:57:24;;;;;;;5.88;1.40;;;;;;;11.66;67.75;99465.25;5014808;28;20045;-88
2022/11/06 10:59:50;;;;;;;7.00;2.28;;;;;;;11.51;68.11;99469.66;5012833;28;20034;-87
2022/11/06 11:02:37;;;;;;;3.63;1.45;;;;;;;11.75;67.27;99466.31;5011507;28;20034;-86
2022/11/06 11:05:14;;;;;;;5.60;1.33;;;;;;;11.53;67.10;99472.94;5011648;28;20057;-87
2022/11/06 11:07:41;;;;;;;4.60;1.05;;;;;;;11.73;67.09;99463.03;5020954;28;20038;-87
2022/11/06 11:10:22;;;;;;;7.78;2.78;;;;;;;11.58;67.22;99460.34;5032225;28;20124;-90
2022/11/06 11:12:48;;;;;;;3.25;2.05;;;;;;;11.59;67.39;99467.47;5033312;28;20083;-88
2022/11/06 11:15:15;;;;;;;6.47;1.40;;;;;;;11.72;66.30;99453.22;5033994;28;20036;-88
2022/11/06 11:17:41;;;;;;;3.33;1.83;;;;;;;11.62;66.90;99445.06;5033620;28;20033;-88
2022/11/06 11:20:30;;;;;;;6.32;1.25;;;;;;;11.68;66.34;99449.41;5034203;28;20120;-88
2022/11/06 11:23:19;;;;;;;5.57;2.15;;;;;;;11.53;67.19;99429.25;5025732;28;20392;-86
2022/11/06 11:25:50;;;;;;;5.63;1.92;;;;;;;11.53;66.78;99426.53;5014669;28;20034;-87
2022/11/06 11:28:24;;;;;;;13.13;3.97;;;;;;;11.50;67.17;99427.09;5014506;28;20108;-88
2022/11/06 11:30:52;;;;;;;4.70;2.22;;;;;;;11.61;66.89;99421.59;5014505;28;20398;-87
2022/11/06 11:33:21;;;;;;;7.80;1.55;;;;;;;11.27;66.79;99412.97;5013998;28;20037;-87
2022/11/06 11:35:48;;;;;;;5.13;2.33;;;;;;;11.36;67.13;99412.41;5013633;28;20053;-90
2022/11/06 11:38:15;;;;;;;6.47;1.90;;;;;;;11.53;66.30;99412.06;5014097;28;20030;-93
2022/11/06 11:40:41;;;;;;;5.90;1.75;;;;;;;11.41;67.07;99406.94;5013881;28;20528;-86
2022/11/06 11:43:25;;;;;;;9.80;2.97;;;;;;;11.48;66.83;99406.63;5013140;28;20112;-84
2022/11/06 11:46:08;;;;;;;5.95;1.60;;;;;;;11.48;67.24;99399.25;5011378;28;20113;-87
2022/11/06 11:48:47;;;;;;;6.03;1.63;;;;;;;11.55;66.25;99391.56;5020253;28;20037;-87
2022/11/06 11:51:43;;;;;;;7.63;2.15;;;;;;;11.29;67.23;99378.03;5033778;28;20633;-87
2022/11/06 11:54:11;;;;;;;7.18;1.95;;;;;;;11.25;67.08;99371.50;5032746;28;20033;-89
2022/11/06 11:57:04;;;;;;;6.32;1.95;;;;;;;11.15;66.96;99361.44;5033093;28;20033;-86
2022/11/06 11:59:33;;;;;;;6.15;2.20;;;;;;;11.31;66.75;99356.75;5033183;28;20528;-87
2022/11/06 12:02:13;;;;;;;5.20;2.03;;;;;;;11.43;66.65;99361.88;5033153;28;20034;-89
2022/11/06 12:04:41;;;;;;;5.63;2.05;;;;;;;11.19;67.28;99350.78;5011188;28;20031;-89
2022/11/06 12:07:20;;;;;;;6.22;1.77;;;;;;;11.01;66.93;99355.78;5013099;28;20033;-92
2022/11/06 12:09:46;;;;;;;9.75;2.13;;;;;;;11.22;67.13;99355.69;5013211;28;20037;-88